createdAt,value
2022-09-10T00:01:59.219Z,5.30
2022-09-10T00:04:25.754Z,6.93
2022-09-10T00:06:52.320Z,5.93
2022-09-10T00:09:19.199Z,6.88
2022-09-10T00:11:46.389Z,5.40
2022-09-10T00:14:17.122Z,4.20
2022-09-10T00:16:44.488Z,6.47
2022-09-10T00:19:11.188Z,4.43
2022-09-10T00:21:37.817Z,4.70
2022-09-10T00:24:05.458Z,9.18
2022-09-10T00:26:38.033Z,6.85
2022-09-10T00:29:06.649Z,3.42
2022-09-10T00:31:33.947Z,6.30
2022-09-10T00:34:01.763Z,4.70
2022-09-10T00:36:35.916Z,3.55
2022-09-10T00:39:08.236Z,5.38
2022-09-10T00:41:36.700Z,4.43
2022-09-10T00:44:07.071Z,4.95
2022-09-10T00:46:35.659Z,4.40
2022-09-10T00:49:09.974Z,4.43
2022-09-10T00:51:37.308Z,5.85
2022-09-10T00:54:05.297Z,5.47
2022-09-10T00:56:33.063Z,4.93
2022-09-10T00:59:00.767Z,5.43
2022-09-10T01:01:27.287Z,3.35
2022-09-10T01:03:54.797Z,5.10
2022-09-10T01:06:21.405Z,4.88
2022-09-10T01:08:47.814Z,4.53
2022-09-10T01:11:26.602Z,4.47
2022-09-10T01:14:20.104Z,3.42
2022-09-10T01:17:25.938Z,5.35
2022-09-10T01:20:14.984Z,3.85
2022-09-10T01:23:17.650Z,5.95
2022-09-10T01:26:21.373Z,3.83
2022-09-10T01:29:07.685Z,4.28
2022-09-10T01:31:56.730Z,3.72
2022-09-10T01:34:37.210Z,3.78
2022-09-10T01:37:09.683Z,4.65
2022-09-10T01:39:38.895Z,4.40
2022-09-10T01:42:06.650Z,3.40
2022-09-10T01:44:47.366Z,6.88
2022-09-10T01:47:56.980Z,3.35
2022-09-10T01:50:45.996Z,5.50
2022-09-10T01:53:33.335Z,4.18
2022-09-10T01:56:24.343Z,5.78
2022-09-10T01:58:54.567Z,7.15
2022-09-10T02:01:40.352Z,7.60
2022-09-10T02:04:09.957Z,4.40
2022-09-10T02:06:41.262Z,4.35
2022-09-10T02:09:09.762Z,4.47
2022-09-10T02:11:52.913Z,5.78
2022-09-10T02:14:51.679Z,5.32
2022-09-10T02:17:24.485Z,4.25
2022-09-10T02:19:53.785Z,4.05
2022-09-10T02:22:25.145Z,3.20
2022-09-10T02:24:51.875Z,4.43
2022-09-10T02:27:18.634Z,5.25
2022-09-10T02:29:45.532Z,5.75
2022-09-10T02:32:13.334Z,5.20
2022-09-10T02:34:40.268Z,5.70
2022-09-10T02:37:06.808Z,4.78
2022-09-10T02:39:36.635Z,4.60
2022-09-10T02:42:03.285Z,3.88
2022-09-10T02:44:29.731Z,4.85
2022-09-10T02:46:56.126Z,3.95
2022-09-10T02:49:22.632Z,4.88
2022-09-10T02:51:50.488Z,4.63
2022-09-10T02:54:19.854Z,4.13
2022-09-10T02:56:49.816Z,3.83
2022-09-10T02:59:17.942Z,3.60
2022-09-10T03:01:44.570Z,3.75
2022-09-10T03:04:11.683Z,3.97
2022-09-10T03:06:38.151Z,4.95
2022-09-10T03:09:04.597Z,4.25
2022-09-10T03:11:31.620Z,3.85
2022-09-10T03:13:58.637Z,5.60
2022-09-10T03:16:25.639Z,4.47
2022-09-10T03:18:52.288Z,4.55
2022-09-10T03:21:22.193Z,4.40
2022-09-10T03:23:50.864Z,5.57
2022-09-10T03:26:25.366Z,4.28
2022-09-10T03:28:52.770Z,5.88
2022-09-10T03:31:21.714Z,3.60
2022-09-10T03:33:50.580Z,3.70
2022-09-10T03:36:18.203Z,3.58
2022-09-10T03:38:47.170Z,4.88
2022-09-10T03:41:13.690Z,3.92
2022-09-10T03:43:40.354Z,4.88
2022-09-10T03:46:11.874Z,4.05
2022-09-10T03:48:40.036Z,6.07
2022-09-10T03:51:08.256Z,4.82
2022-09-10T03:53:34.692Z,5.05
2022-09-10T03:56:03.166Z,3.85
2022-09-10T03:58:29.822Z,3.60
2022-09-10T04:00:56.330Z,5.15
2022-09-10T04:03:22.801Z,5.20
2022-09-10T04:05:49.341Z,5.78
2022-09-10T04:08:16.343Z,2.70
2022-09-10T04:10:44.316Z,3.80
2022-09-10T04:13:11.348Z,4.18
2022-09-10T04:15:39.038Z,4.10
2022-09-10T04:18:06.792Z,3.92
2022-09-10T04:20:34.131Z,3.28
2022-09-10T04:23:06.308Z,4.32
2022-09-10T04:25:35.306Z,4.10
2022-09-10T04:28:03.568Z,3.72
2022-09-10T04:30:31.551Z,4.57
2022-09-10T04:32:57.978Z,6.22
2022-09-10T04:35:24.531Z,2.90
2022-09-10T04:37:51.278Z,6.10
2022-09-10T04:40:17.829Z,3.88
2022-09-10T04:42:44.233Z,4.40
2022-09-10T04:45:10.900Z,5.18
2022-09-10T04:47:37.857Z,4.85
2022-09-10T04:50:06.204Z,4.00
2022-09-10T04:52:33.439Z,5.57
2022-09-10T04:54:59.947Z,5.22
2022-09-10T04:57:26.388Z,6.07
2022-09-10T04:59:54.012Z,5.20
2022-09-10T05:02:21.615Z,7.82
2022-09-10T05:04:48.322Z,4.88
2022-09-10T05:07:15.044Z,5.28
2022-09-10T05:09:42.059Z,6.75
2022-09-10T05:12:08.494Z,5.65
2022-09-10T05:14:34.925Z,5.55
2022-09-10T05:17:03.282Z,5.53
2022-09-10T05:19:30.477Z,6.00
2022-09-10T05:22:03.122Z,4.00
2022-09-10T05:24:34.152Z,4.22
2022-09-10T05:27:03.426Z,4.50
2022-09-10T05:29:29.847Z,4.53
2022-09-10T05:31:57.705Z,5.97
2022-09-10T05:34:25.136Z,3.92
2022-09-10T05:36:52.542Z,2.80
2022-09-10T05:39:20.220Z,3.90
2022-09-10T05:41:46.885Z,4.72
2022-09-10T05:44:15.009Z,3.95
2022-09-10T05:46:41.600Z,4.53
2022-09-10T05:49:13.041Z,3.28
2022-09-10T05:51:40.158Z,4.68
2022-09-10T05:54:08.083Z,3.50
2022-09-10T05:56:35.182Z,2.92
2022-09-10T05:59:03.961Z,4.90
2022-09-10T06:01:34.886Z,3.97
2022-09-10T06:04:03.981Z,6.35
2022-09-10T06:06:31.881Z,3.53
2022-09-10T06:09:04.939Z,3.00
2022-09-10T06:11:41.940Z,4.05
2022-09-10T06:14:09.187Z,3.60
2022-09-10T06:16:35.848Z,3.10
2022-09-10T06:19:02.943Z,3.72
2022-09-10T06:21:29.775Z,4.22
2022-09-10T06:23:57.686Z,4.00
2022-09-10T06:26:26.346Z,3.50
2022-09-10T06:28:56.792Z,5.28
2022-09-10T06:31:23.647Z,1.90
2022-09-10T06:33:51.512Z,3.85
2022-09-10T06:36:20.786Z,2.78
2022-09-10T06:38:49.732Z,2.92
2022-09-10T06:41:17.193Z,6.65
2022-09-10T06:47:02.321Z,3.35
2022-09-10T06:49:15.863Z,2.08
2022-09-10T06:51:46.661Z,3.80
2022-09-10T06:54:14.879Z,3.28
2022-09-10T06:56:42.851Z,3.50
2022-09-10T06:59:09.503Z,3.03
2022-09-10T07:01:42.655Z,4.60
2022-09-10T07:04:09.180Z,3.67
2022-09-10T07:06:36.918Z,3.45
2022-09-10T07:09:06.299Z,5.18
2022-09-10T07:11:41.569Z,3.78
2022-09-10T07:14:13.800Z,4.05
2022-09-10T07:16:41.525Z,4.53
2022-09-10T07:19:12.205Z,4.18
2022-09-10T07:21:42.741Z,4.80
2022-09-10T07:24:12.595Z,3.80
2022-09-10T07:26:42.119Z,3.95
2022-09-10T07:29:08.547Z,4.53
2022-09-10T07:31:38.237Z,3.67
2022-09-10T07:34:09.371Z,4.43
2022-09-10T07:36:36.326Z,6.43
2022-09-10T07:39:04.491Z,6.93
2022-09-10T07:41:37.110Z,4.30
2022-09-10T07:44:06.986Z,3.00
2022-09-10T07:46:38.883Z,5.07
2022-09-10T07:49:09.507Z,3.55
2022-09-10T07:51:37.841Z,10.07
2022-09-10T07:54:05.680Z,5.60
2022-09-10T07:56:37.804Z,5.70
2022-09-10T07:59:06.729Z,4.20
2022-09-10T08:01:50.624Z,3.75
2022-09-10T08:04:19.087Z,4.90
2022-09-10T08:06:45.749Z,4.43
2022-09-10T08:09:14.749Z,5.05
2022-09-10T08:11:48.433Z,5.05
2022-09-10T08:14:16.710Z,6.22
2022-09-10T08:16:47.096Z,4.47
2022-09-10T08:19:14.870Z,4.10
2022-09-10T08:21:41.490Z,5.03
2022-09-10T08:24:10.432Z,5.32
2022-09-10T08:26:38.294Z,6.63
2022-09-10T08:29:06.374Z,5.22
2022-09-10T08:31:32.792Z,4.55
2022-09-10T08:34:06.292Z,6.15
2022-09-10T08:36:35.125Z,5.75
2022-09-10T08:39:06.305Z,7.22
2022-09-10T08:41:41.384Z,5.55
2022-09-10T08:44:27.786Z,3.85
2022-09-10T08:47:04.577Z,5.60
2022-09-10T08:49:41.910Z,6.50
2022-09-10T08:52:20.523Z,7.55
2022-09-10T08:55:19.169Z,7.03
2022-09-10T08:58:08.342Z,7.10
2022-09-10T09:00:39.342Z,6.28
2022-09-10T09:03:29.355Z,7.00
2022-09-10T09:06:01.853Z,7.97
2022-09-10T09:08:36.486Z,6.10
2022-09-10T09:11:35.109Z,7.90
2022-09-10T09:14:33.428Z,7.43
2022-09-10T09:17:27.490Z,7.22
2022-09-10T09:20:15.479Z,7.53
2022-09-10T09:22:55.427Z,7.03
2022-09-10T09:25:50.857Z,7.70
2022-09-10T09:28:52.375Z,9.10
2022-09-10T09:31:30.273Z,11.75
2022-09-10T09:34:09.803Z,9.38
2022-09-10T09:36:53.963Z,8.95
2022-09-10T09:39:28.293Z,10.20
2022-09-10T09:42:06.993Z,10.38
2022-09-10T09:44:46.470Z,8.82
2022-09-10T09:47:13.764Z,7.93
2022-09-10T09:49:42.444Z,9.57
2022-09-10T09:52:22.475Z,10.55
2022-09-10T09:57:42.611Z,14.05
2022-09-10T10:00:31.147Z,15.93
2022-09-10T10:03:05.867Z,14.93
2022-09-10T10:05:34.030Z,11.18
2022-09-10T10:08:00.341Z,11.80
2022-09-10T10:10:28.143Z,12.40
2022-09-10T10:12:55.415Z,11.43
2022-09-10T10:15:38.630Z,11.70
2022-09-10T10:18:33.093Z,9.20
2022-09-10T10:21:31.699Z,10.35
2022-09-10T10:23:58.287Z,9.30
2022-09-10T10:26:33.024Z,9.27
2022-09-10T10:29:20.416Z,9.05
2022-09-10T10:31:49.318Z,9.55
2022-09-10T10:34:18.365Z,9.90
2022-09-10T10:37:07.610Z,9.38
2022-09-10T10:40:08.305Z,10.15
2022-09-10T10:43:05.157Z,7.03
2022-09-10T10:45:38.504Z,8.88
2022-09-10T10:48:12.314Z,9.15
2022-09-10T10:50:53.254Z,8.75
2022-09-10T10:53:38.370Z,9.32
2022-09-10T10:56:17.762Z,9.13
2022-09-10T10:59:09.487Z,9.77
2022-09-10T11:01:43.078Z,13.20
2022-09-10T11:04:37.006Z,9.75
2022-09-10T11:07:25.110Z,8.83
2022-09-10T11:10:00.049Z,8.65
2022-09-10T11:13:11.988Z,11.75
2022-09-10T11:15:47.487Z,8.32
2022-09-10T11:18:27.291Z,9.00
2022-09-10T11:21:03.076Z,6.32
2022-09-10T11:23:57.657Z,8.68
2022-09-10T11:26:46.172Z,7.53
2022-09-10T11:29:25.279Z,9.20
2022-09-10T11:32:13.397Z,7.80
2022-09-10T11:35:05.026Z,9.35
2022-09-10T11:37:51.009Z,9.27
2022-09-10T11:40:44.614Z,8.50
2022-09-10T11:43:14.248Z,5.85
2022-09-10T11:45:53.242Z,6.28
2022-09-10T11:48:42.166Z,7.90
2022-09-10T11:51:38.751Z,8.70
2022-09-10T11:54:10.610Z,8.30
2022-09-10T11:57:01.276Z,9.98
2022-09-10T11:59:49.498Z,7.82
2022-09-10T12:02:59.229Z,7.05
2022-09-10T12:06:02.464Z,8.00
2022-09-10T12:08:51.150Z,7.30
2022-09-10T12:11:28.267Z,7.05
2022-09-10T12:13:54.918Z,8.40
2022-09-10T12:16:30.140Z,6.85
2022-09-10T12:18:58.967Z,5.78
2022-09-10T12:21:43.110Z,6.38
2022-09-10T12:24:28.415Z,7.20
2022-09-10T12:26:55.539Z,8.13
2022-09-10T12:29:34.922Z,7.80
2022-09-10T12:32:19.411Z,6.38
2022-09-10T12:37:27.781Z,7.13
2022-09-10T12:40:32.710Z,7.50
2022-09-10T12:43:20.176Z,6.00
2022-09-10T12:46:12.679Z,6.20
2022-09-10T12:48:47.673Z,8.60
2022-09-10T12:51:17.226Z,7.35
2022-09-10T12:54:04.794Z,6.82
2022-09-10T12:56:50.830Z,7.63
2022-09-10T12:59:39.819Z,5.47
2022-09-10T13:02:35.018Z,6.22
2022-09-10T13:05:19.060Z,7.90
2022-09-10T13:07:49.165Z,7.30
2022-09-10T13:10:24.770Z,6.88
2022-09-10T13:12:55.744Z,8.55
2022-09-10T13:15:29.912Z,7.78
2022-09-10T13:17:56.413Z,6.43
2022-09-10T13:20:22.966Z,5.90
2022-09-10T13:23:08.750Z,10.15
2022-09-10T13:25:46.020Z,6.53
2022-09-10T13:28:30.655Z,7.15
2022-09-10T13:31:12.634Z,5.10
2022-09-10T13:33:52.036Z,6.20
2022-09-10T13:36:37.403Z,8.05
2022-09-10T13:39:25.191Z,6.65
2022-09-10T13:42:03.185Z,7.10
2022-09-10T13:45:12.295Z,6.75
2022-09-10T13:47:49.255Z,6.05
2022-09-10T13:50:21.602Z,7.53
2022-09-10T13:52:52.266Z,6.50
2022-09-10T13:55:30.635Z,5.25
2022-09-10T13:58:14.090Z,6.72
2022-09-10T14:00:53.344Z,6.80
2022-09-10T14:03:29.088Z,6.35
2022-09-10T14:05:57.515Z,7.65
2022-09-10T14:08:30.364Z,7.95
2022-09-10T14:11:11.751Z,7.70
2022-09-10T14:13:56.225Z,8.02
2022-09-10T14:18:59.890Z,5.30
2022-09-10T14:21:36.397Z,5.07
2022-09-10T14:24:03.249Z,6.75
2022-09-10T14:26:33.550Z,7.82
2022-09-10T14:29:03.402Z,5.80
2022-09-10T14:31:37.333Z,5.70
2022-09-10T14:34:33.066Z,6.47
2022-09-10T14:37:01.079Z,6.75
2022-09-10T14:39:28.093Z,7.78
2022-09-10T14:42:24.344Z,7.57
2022-09-10T14:44:51.158Z,6.30
2022-09-10T14:47:28.312Z,6.00
2022-09-10T14:49:54.745Z,7.07
2022-09-10T14:52:22.346Z,7.65
2022-09-10T14:54:48.883Z,6.20
2022-09-10T14:57:15.920Z,7.50
2022-09-10T14:59:46.434Z,7.20
2022-09-10T15:02:21.582Z,9.25
2022-09-10T15:04:48.152Z,6.43
2022-09-10T15:07:14.923Z,8.48
2022-09-10T15:09:41.405Z,6.93
2022-09-10T15:12:24.610Z,6.32
2022-09-10T15:14:51.579Z,6.45
2022-09-10T15:17:18.557Z,7.20
2022-09-10T15:19:45.254Z,7.68
2022-09-10T15:22:26.995Z,7.68
2022-09-10T15:25:11.118Z,6.72
2022-09-10T15:30:05.317Z,8.73
2022-09-10T15:32:31.822Z,6.18
2022-09-10T15:34:59.000Z,6.85
2022-09-10T15:37:25.511Z,8.65
2022-09-10T15:39:52.634Z,5.60
2022-09-10T15:42:19.069Z,5.38
2022-09-10T15:44:45.500Z,7.30
2022-09-10T15:47:11.891Z,8.02
2022-09-10T15:49:38.298Z,5.97
2022-09-10T15:52:04.907Z,10.32
2022-09-10T15:54:31.314Z,6.57
2022-09-10T15:56:59.119Z,7.38
2022-09-10T15:59:25.590Z,7.78
2022-09-10T16:01:52.058Z,8.65
2022-09-10T16:04:18.618Z,6.88
2022-09-10T16:06:45.010Z,10.07
2022-09-10T16:09:13.554Z,5.78
2022-09-10T16:11:41.587Z,5.82
2022-09-10T16:14:12.034Z,6.70
2022-09-10T16:16:39.098Z,7.78
2022-09-10T16:19:05.860Z,7.28
2022-09-10T16:21:36.389Z,8.82
2022-09-10T16:24:04.732Z,7.03
2022-09-10T16:26:34.550Z,7.55
2022-09-10T16:29:03.845Z,8.13
2022-09-10T16:31:35.792Z,6.10
2022-09-10T16:34:04.584Z,8.80
2022-09-10T16:36:36.964Z,6.80
2022-09-10T16:39:07.046Z,7.32
2022-09-10T16:41:33.453Z,7.72
2022-09-10T16:44:00.465Z,7.18
2022-09-10T16:46:27.904Z,8.15
2022-09-10T16:48:55.387Z,7.00
2022-09-10T16:51:24.229Z,6.80
2022-09-10T16:54:02.713Z,7.13
2022-09-10T16:56:34.261Z,7.72
2022-09-10T16:59:01.344Z,6.80
2022-09-10T17:01:28.377Z,6.90
2022-09-10T17:03:54.991Z,8.07
2022-09-10T17:06:26.730Z,6.93
2022-09-10T17:08:55.185Z,6.47
2022-09-10T17:11:22.718Z,8.48
2022-09-10T17:13:50.836Z,7.63
2022-09-10T17:16:30.507Z,7.47
2022-09-10T17:19:12.358Z,6.93
2022-09-10T17:21:40.247Z,7.28
2022-09-10T17:24:09.671Z,7.80
2022-09-10T17:26:37.241Z,7.60
2022-09-10T17:29:06.641Z,9.27
2022-09-10T17:31:34.291Z,6.95
2022-09-10T17:34:02.130Z,8.77
2022-09-10T17:36:28.998Z,7.55
2022-09-10T17:38:56.148Z,9.23
2022-09-10T17:41:23.493Z,6.15
2022-09-10T17:43:50.942Z,5.97
2022-09-10T17:46:21.244Z,6.53
2022-09-10T17:48:48.835Z,7.05
2022-09-10T17:51:18.275Z,8.05
2022-09-10T17:53:45.178Z,5.85
2022-09-10T17:56:13.827Z,8.13
2022-09-10T17:58:41.042Z,7.25
2022-09-10T18:01:23.129Z,6.63
2022-09-10T18:03:50.737Z,7.30
2022-09-10T18:06:18.068Z,8.50
2022-09-10T18:08:45.267Z,7.30
2022-09-10T18:11:18.123Z,9.38
2022-09-10T18:13:44.935Z,7.35
2022-09-10T18:16:16.823Z,7.55
2022-09-10T18:18:45.454Z,7.57
2022-09-10T18:21:18.007Z,6.20
2022-09-10T18:23:44.448Z,5.53
2022-09-10T18:26:15.849Z,5.93
2022-09-10T18:28:43.554Z,6.90
2022-09-10T18:31:10.928Z,7.75
2022-09-10T18:33:40.090Z,8.35
2022-09-10T18:36:15.275Z,6.88
2022-09-10T18:38:43.631Z,8.70
2022-09-10T18:41:21.262Z,6.72
2022-09-10T18:43:48.758Z,7.38
2022-09-10T18:46:15.389Z,6.43
2022-09-10T18:48:42.261Z,5.22
2022-09-10T18:51:11.047Z,5.60
2022-09-10T18:53:39.227Z,8.13
2022-09-10T18:56:11.337Z,6.78
2022-09-10T18:58:38.463Z,5.97
2022-09-10T19:01:13.342Z,6.20
2022-09-10T19:03:42.646Z,6.18
2022-09-10T19:06:18.787Z,7.75
2022-09-10T19:08:50.421Z,7.18
2022-09-10T19:11:17.502Z,8.15
2022-09-10T19:13:55.019Z,6.82
2022-09-10T19:16:27.218Z,7.60
2022-09-10T19:18:56.946Z,7.18
2022-09-10T19:21:26.326Z,7.00
2022-09-10T19:23:59.347Z,8.20
2022-09-10T19:26:30.966Z,7.95
2022-09-10T19:28:59.145Z,9.00
2022-09-10T19:31:27.029Z,7.65
2022-09-10T19:33:58.194Z,7.70
2022-09-10T19:36:27.513Z,8.55
2022-09-10T19:38:54.695Z,8.27
2022-09-10T19:41:21.277Z,6.93
2022-09-10T19:43:49.458Z,8.00
2022-09-10T19:46:17.528Z,9.55
2022-09-10T19:48:45.131Z,7.43
2022-09-10T19:51:13.766Z,8.63
2022-09-10T19:53:41.522Z,8.10
2022-09-10T19:56:09.282Z,6.97
2022-09-10T19:58:36.821Z,6.03
2022-09-10T20:01:21.093Z,6.75
2022-09-10T20:03:48.145Z,8.55
2022-09-10T20:06:18.293Z,6.55
2022-09-10T20:08:46.225Z,8.95
2022-09-10T20:11:24.290Z,9.02
2022-09-10T20:14:07.773Z,7.57
2022-09-10T20:16:39.452Z,6.28
2022-09-10T20:19:06.570Z,8.05
2022-09-10T20:21:33.577Z,8.00
2022-09-10T20:24:00.139Z,6.85
2022-09-10T20:26:34.816Z,8.30
2022-09-10T20:29:03.896Z,7.63
2022-09-10T20:31:32.219Z,7.20
2022-09-10T20:34:01.026Z,7.18
2022-09-10T20:36:28.539Z,7.22
2022-09-10T20:38:56.971Z,7.70
2022-09-10T20:41:24.871Z,7.15
2022-09-10T20:43:52.222Z,7.95
2022-09-10T20:46:21.963Z,9.02
2022-09-10T20:48:50.309Z,9.63
2022-09-10T20:51:18.155Z,7.22
2022-09-10T20:53:45.321Z,9.07
2022-09-10T20:56:17.801Z,7.75
2022-09-10T20:58:45.739Z,7.22
2022-09-10T21:01:23.737Z,6.88
2022-09-10T21:03:53.472Z,7.68
2022-09-10T21:06:23.816Z,7.15
2022-09-10T21:08:50.595Z,8.93
2022-09-10T21:11:19.450Z,7.38
2022-09-10T21:13:49.875Z,9.13
2022-09-10T21:16:18.637Z,11.73
2022-09-10T21:18:54.392Z,13.07
2022-09-10T21:21:25.542Z,11.82
2022-09-10T21:24:12.688Z,10.55
2022-09-10T21:26:40.657Z,10.90
2022-09-10T21:29:10.705Z,12.68
2022-09-10T21:31:37.594Z,13.13
2022-09-10T21:34:05.600Z,14.18
2022-09-10T21:36:34.851Z,17.23
2022-09-10T21:39:03.146Z,15.55
2022-09-10T21:41:32.206Z,16.45
2022-09-10T21:44:00.989Z,18.27
2022-09-10T21:46:27.853Z,17.02
2022-09-10T21:48:55.155Z,25.98
2022-09-10T21:51:22.665Z,21.73
2022-09-10T21:53:52.947Z,22.60
2022-09-10T21:56:19.355Z,28.30
2022-09-10T21:58:47.251Z,22.90
2022-09-10T22:01:18.540Z,32.70
2022-09-10T22:03:48.644Z,29.52
2022-09-10T22:06:18.346Z,26.63
2022-09-10T22:08:48.311Z,32.95
2022-09-10T22:11:18.956Z,35.13
2022-09-10T22:13:51.951Z,32.90
2022-09-10T22:16:20.367Z,31.23
2022-09-10T22:18:46.987Z,40.10
2022-09-10T22:21:13.366Z,41.10
2022-09-10T22:23:39.927Z,40.63
2022-09-10T22:26:12.534Z,39.55
2022-09-10T22:28:39.431Z,37.45
2022-09-10T22:31:18.874Z,36.90
2022-09-10T22:33:49.911Z,37.70
2022-09-10T22:36:23.461Z,43.28
2022-09-10T22:38:52.187Z,40.67
2022-09-10T22:41:19.576Z,37.22
2022-09-10T22:43:46.169Z,35.42
2022-09-10T22:46:12.966Z,42.40
2022-09-10T22:48:42.505Z,40.85
2022-09-10T22:51:20.067Z,37.35
2022-09-10T22:53:47.020Z,41.50
2022-09-10T22:56:14.308Z,43.83
2022-09-10T22:58:41.451Z,41.83
2022-09-10T23:01:10.639Z,39.72
2022-09-10T23:03:37.446Z,38.70
2022-09-10T23:06:09.524Z,36.30
2022-09-10T23:08:36.836Z,35.40
2022-09-10T23:11:15.348Z,34.92
2022-09-10T23:13:44.080Z,37.13
2022-09-10T23:16:16.394Z,34.25
2022-09-10T23:18:46.570Z,34.33
2022-09-10T23:21:13.818Z,32.05
2022-09-10T23:23:44.173Z,35.53
2022-09-10T23:26:10.875Z,29.88
2022-09-10T23:28:37.380Z,34.38
2022-09-10T23:31:09.158Z,32.88
2022-09-10T23:33:35.759Z,28.67
2022-09-10T23:36:03.489Z,30.95
2022-09-10T23:38:31.357Z,26.70
2022-09-10T23:41:00.629Z,25.77
2022-09-10T23:43:27.865Z,27.67
2022-09-10T23:45:55.181Z,26.60
2022-09-10T23:48:23.903Z,24.38
2022-09-10T23:50:51.954Z,28.77
2022-09-10T23:53:19.357Z,31.50
2022-09-10T23:55:45.792Z,29.42
2022-09-10T23:58:12.379Z,26.95
